createdAt,value
2023-01-11T00:00:25.794Z,8.86
2023-01-11T00:03:12.564Z,8.90
2023-01-11T00:05:43.134Z,8.86
2023-01-11T00:08:09.930Z,8.88
2023-01-11T00:10:37.270Z,8.84
2023-01-11T00:13:04.153Z,8.84
2023-01-11T00:15:31.209Z,8.84
2023-01-11T00:17:57.918Z,8.87
2023-01-11T00:20:25.083Z,8.90
2023-01-11T00:22:51.810Z,8.87
2023-01-11T00:25:18.856Z,8.87
2023-01-11T00:27:47.388Z,8.88
2023-01-11T00:30:14.574Z,8.86
2023-01-11T00:32:41.369Z,8.87
2023-01-11T00:35:08.784Z,8.86
2023-01-11T00:37:35.590Z,8.87
2023-01-11T00:40:02.849Z,8.83
2023-01-11T00:42:48.194Z,8.86
2023-01-11T00:45:33.941Z,8.88
2023-01-11T00:48:01.182Z,8.83
2023-01-11T00:50:31.806Z,8.83
2023-01-11T00:52:58.818Z,8.85
2023-01-11T00:55:26.323Z,8.85
2023-01-11T00:57:53.076Z,8.83
2023-01-11T01:00:20.940Z,8.82
2023-01-11T01:02:47.911Z,8.83
2023-01-11T01:05:15.109Z,8.82
2023-01-11T01:07:41.907Z,8.86
2023-01-11T01:10:09.520Z,8.83
2023-01-11T01:12:54.775Z,8.85
2023-01-11T01:15:21.876Z,8.85
2023-01-11T01:17:48.588Z,8.83
2023-01-11T01:20:15.790Z,8.83
2023-01-11T01:22:42.419Z,8.81
2023-01-11T01:25:09.751Z,8.83
2023-01-11T01:27:36.546Z,8.81
2023-01-11T01:30:05.051Z,8.81
2023-01-11T01:32:31.786Z,8.80
2023-01-11T01:34:58.812Z,8.81
2023-01-11T01:37:26.331Z,8.81
2023-01-11T01:39:53.274Z,8.81
2023-01-11T01:42:20.674Z,8.76
2023-01-11T01:45:04.018Z,8.83
2023-01-11T01:47:45.704Z,8.77
2023-01-11T01:50:41.981Z,8.76
2023-01-11T01:53:11.296Z,8.83
2023-01-11T01:55:39.638Z,8.78
2023-01-11T01:58:09.353Z,8.77
2023-01-11T02:00:41.128Z,8.77
2023-01-11T02:03:45.218Z,8.82
2023-01-11T02:06:12.125Z,8.81
2023-01-11T02:08:39.453Z,8.83
2023-01-11T02:11:26.444Z,8.78
2023-01-11T02:13:53.689Z,8.81
2023-01-11T02:16:20.675Z,8.81
2023-01-11T02:18:47.396Z,8.81
2023-01-11T02:21:22.009Z,8.74
2023-01-11T02:24:16.640Z,8.72
2023-01-11T02:26:52.836Z,8.75
2023-01-11T02:29:25.769Z,8.73
2023-01-11T02:32:26.265Z,8.77
2023-01-11T02:35:08.883Z,8.76
2023-01-11T02:37:44.573Z,8.72
2023-01-11T02:40:15.619Z,8.76
2023-01-11T02:43:11.244Z,8.71
2023-01-11T02:45:56.246Z,8.73
2023-01-11T02:48:31.334Z,8.74
2023-01-11T02:51:12.990Z,8.71
2023-01-11T02:53:41.539Z,8.68
2023-01-11T02:56:11.260Z,8.71
2023-01-11T02:58:40.075Z,8.71
2023-01-11T03:01:06.803Z,8.71
2023-01-11T03:03:34.193Z,8.69
2023-01-11T03:06:02.422Z,8.70
2023-01-11T03:09:01.236Z,8.72
2023-01-11T03:12:05.431Z,8.69
2023-01-11T03:15:05.818Z,8.68
2023-01-11T03:18:01.820Z,8.69
2023-01-11T03:20:37.667Z,8.69
2023-01-11T03:23:07.323Z,8.71
2023-01-11T03:25:53.635Z,8.70
2023-01-11T03:28:23.272Z,8.70
2023-01-11T03:31:02.495Z,8.70
2023-01-11T03:33:45.562Z,8.70
2023-01-11T03:36:18.720Z,8.68
2023-01-11T03:38:55.557Z,8.71
2023-01-11T03:41:30.384Z,8.67
2023-01-11T03:43:57.060Z,8.69
2023-01-11T03:46:27.013Z,8.68
2023-01-11T03:49:04.195Z,8.69
2023-01-11T03:51:34.005Z,8.71
2023-01-11T03:54:01.903Z,8.68
2023-01-11T03:57:07.041Z,8.65
2023-01-11T03:59:33.811Z,8.70
2023-01-11T04:02:01.027Z,8.66
2023-01-11T04:04:27.932Z,8.67
2023-01-11T04:06:54.929Z,8.70
2023-01-11T04:09:21.721Z,8.68
2023-01-11T04:11:51.644Z,8.69
2023-01-11T04:14:18.271Z,8.67
2023-01-11T04:16:45.187Z,8.70
2023-01-11T04:19:11.787Z,8.69
2023-01-11T04:21:38.783Z,8.64
2023-01-11T04:24:05.729Z,8.67
2023-01-11T04:26:33.173Z,8.64
2023-01-11T04:28:59.815Z,8.69
2023-01-11T04:31:26.867Z,8.65
2023-01-11T04:33:53.607Z,8.61
2023-01-11T04:36:20.607Z,8.63
2023-01-11T04:38:47.398Z,8.61
2023-01-11T04:41:32.873Z,8.56
2023-01-11T04:43:59.618Z,8.58
2023-01-11T04:46:26.583Z,8.63
2023-01-11T04:48:53.325Z,8.61
2023-01-11T04:51:20.354Z,8.63
2023-01-11T04:53:49.053Z,8.59
2023-01-11T04:56:16.305Z,8.58
2023-01-11T04:58:42.933Z,8.59
2023-01-11T05:01:11.260Z,8.60
2023-01-11T05:03:38.250Z,8.53
2023-01-11T05:06:05.563Z,8.52
2023-01-11T05:08:32.370Z,8.56
2023-01-11T05:11:00.866Z,8.53
2023-01-11T05:13:42.748Z,8.54
2023-01-11T05:16:23.824Z,8.54
2023-01-11T05:18:52.189Z,8.55
2023-01-11T05:21:22.176Z,8.50
2023-01-11T05:23:49.181Z,8.48
2023-01-11T05:26:22.939Z,8.49
2023-01-11T05:28:49.779Z,8.45
2023-01-11T05:31:17.111Z,8.42
2023-01-11T05:33:43.925Z,8.44
2023-01-11T05:36:16.241Z,8.43
2023-01-11T05:38:43.026Z,8.42
2023-01-11T05:41:10.119Z,8.40
2023-01-11T05:43:59.976Z,8.41
2023-01-11T05:46:27.094Z,8.41
2023-01-11T05:48:56.841Z,8.36
2023-01-11T05:51:23.829Z,8.36
2023-01-11T05:53:50.474Z,8.36
2023-01-11T05:56:17.437Z,8.33
2023-01-11T05:58:44.076Z,8.32
2023-01-11T06:01:11.977Z,8.35
2023-01-11T06:03:38.656Z,8.27
2023-01-11T06:06:05.873Z,8.31
2023-01-11T06:08:32.524Z,8.24
2023-01-11T06:10:59.513Z,8.27
2023-01-11T06:13:29.302Z,8.21
2023-01-11T06:16:00.562Z,8.19
2023-01-11T06:18:28.570Z,8.18
2023-01-11T06:20:55.841Z,8.13
2023-01-11T06:23:23.205Z,8.13
2023-01-11T06:25:50.135Z,8.14
2023-01-11T06:28:16.869Z,8.14
2023-01-11T06:30:43.859Z,8.09
2023-01-11T06:33:10.507Z,8.08
2023-01-11T06:35:41.397Z,8.08
2023-01-11T06:38:09.348Z,8.02
2023-01-11T06:40:36.771Z,8.05
2023-01-11T06:43:03.752Z,8.02
2023-01-11T06:45:30.897Z,7.96
2023-01-11T06:47:57.842Z,7.98
2023-01-11T06:50:24.894Z,7.99
2023-01-11T06:52:55.873Z,7.91
2023-01-11T06:55:23.168Z,7.93
2023-01-11T06:57:49.867Z,7.91
2023-01-11T07:00:17.554Z,7.96
2023-01-11T07:02:45.049Z,7.91
2023-01-11T07:05:12.439Z,7.88
2023-01-11T07:07:39.361Z,7.84
2023-01-11T07:10:08.125Z,7.85
2023-01-11T07:12:35.677Z,7.84
2023-01-11T07:15:06.770Z,7.82
2023-01-11T07:17:33.794Z,7.82
2023-01-11T07:20:00.824Z,7.84
2023-01-11T07:22:28.324Z,7.86
2023-01-11T07:24:55.334Z,7.84
2023-01-11T07:27:21.994Z,7.79
2023-01-11T07:29:48.909Z,7.83
2023-01-11T07:32:16.716Z,7.81
2023-01-11T07:34:43.657Z,7.78
2023-01-11T07:37:28.427Z,7.80
2023-01-11T07:39:56.421Z,7.72
2023-01-11T07:42:41.878Z,7.77
2023-01-11T07:45:09.202Z,7.78
2023-01-11T07:47:35.952Z,7.79
2023-01-11T07:50:03.055Z,7.80
2023-01-11T07:52:29.740Z,7.80
2023-01-11T07:55:02.445Z,7.83
2023-01-11T07:57:30.037Z,7.84
2023-01-11T07:59:57.063Z,7.84
2023-01-11T08:02:23.866Z,7.82
2023-01-11T08:04:50.983Z,7.85
2023-01-11T08:07:17.648Z,7.82
2023-01-11T08:09:44.666Z,7.83
2023-01-11T08:12:29.792Z,7.83
2023-01-11T08:14:56.725Z,7.86
2023-01-11T08:17:23.772Z,7.86
2023-01-11T08:19:50.758Z,7.88
2023-01-11T08:22:20.304Z,7.88
2023-01-11T08:24:47.364Z,7.89
2023-01-11T08:27:14.192Z,7.94
2023-01-11T08:29:44.124Z,7.95
2023-01-11T08:32:14.298Z,7.98
2023-01-11T08:34:41.514Z,7.98
2023-01-11T08:37:08.182Z,8.02
2023-01-11T08:39:35.246Z,8.03
2023-01-11T08:42:03.149Z,8.04
2023-01-11T08:44:34.521Z,8.08
2023-01-11T08:47:02.952Z,8.07
2023-01-11T08:49:30.696Z,8.10
2023-01-11T08:51:57.597Z,8.11
2023-01-11T08:54:25.080Z,8.16
2023-01-11T08:56:51.783Z,8.20
2023-01-11T08:59:19.954Z,8.23
2023-01-11T09:01:47.433Z,8.29
2023-01-11T09:04:24.175Z,8.29
2023-01-11T09:06:52.881Z,8.33
2023-01-11T09:09:19.943Z,8.35
2023-01-11T09:11:57.093Z,8.38
2023-01-11T09:14:25.395Z,8.42
2023-01-11T09:16:52.623Z,8.45
2023-01-11T09:19:19.874Z,8.46
2023-01-11T09:21:46.800Z,8.49
2023-01-11T09:24:14.187Z,8.50
2023-01-11T09:26:43.309Z,8.52
2023-01-11T09:29:11.316Z,8.60
2023-01-11T09:31:38.158Z,8.65
2023-01-11T09:34:06.869Z,8.66
2023-01-11T09:36:35.948Z,8.69
2023-01-11T09:39:07.618Z,8.70
2023-01-11T09:42:05.402Z,8.69
2023-01-11T09:44:34.513Z,8.70
2023-01-11T09:47:14.505Z,8.76
2023-01-11T09:49:43.289Z,8.78
2023-01-11T09:52:28.771Z,8.83
2023-01-11T09:54:58.850Z,8.87
2023-01-11T09:57:44.506Z,8.87
2023-01-11T10:00:12.172Z,8.96
2023-01-11T10:03:00.711Z,8.97
2023-01-11T10:05:40.060Z,9.02
2023-01-11T10:18:26.029Z,9.11
2023-01-11T10:18:37.473Z,9.14
2023-01-11T10:20:35.359Z,9.16
2023-01-11T10:23:08.960Z,9.21
2023-01-11T10:25:42.657Z,9.19
2023-01-11T10:28:32.236Z,9.20
2023-01-11T10:30:58.913Z,9.26
2023-01-11T10:34:03.591Z,9.28
2023-01-11T10:37:12.886Z,9.34
2023-01-11T10:40:07.036Z,9.38
2023-01-11T10:42:39.925Z,9.41
2023-01-11T10:45:14.349Z,9.43
2023-01-11T10:48:02.986Z,9.46
2023-01-11T10:51:01.773Z,9.49
2023-01-11T10:53:55.114Z,9.50
2023-01-11T10:56:24.588Z,9.53
2023-01-11T10:59:00.681Z,9.54
2023-01-11T11:01:42.208Z,9.55
2023-01-11T11:04:44.275Z,9.59
2023-01-11T11:07:20.600Z,9.64
2023-01-11T11:09:55.727Z,9.68
2023-01-11T11:12:28.869Z,9.71
2023-01-11T11:15:25.299Z,9.71
2023-01-11T11:17:53.097Z,9.78
2023-01-11T11:20:24.249Z,9.77
2023-01-11T11:22:52.027Z,9.79
2023-01-11T11:25:27.528Z,9.84
2023-01-11T11:28:05.047Z,9.91
2023-01-11T11:30:38.172Z,9.94
2023-01-11T11:33:26.070Z,9.99
2023-01-11T11:36:09.486Z,10.03
2023-01-11T11:38:43.237Z,10.08
2023-01-11T11:41:15.040Z,10.13
2023-01-11T11:43:43.248Z,10.07
2023-01-11T11:46:19.888Z,10.07
2023-01-11T11:49:10.572Z,10.13
2023-01-11T11:51:37.357Z,10.16
2023-01-11T11:54:04.368Z,10.15
2023-01-11T11:56:33.090Z,10.24
2023-01-11T11:59:05.137Z,10.28
2023-01-11T12:01:34.060Z,10.26
2023-01-11T12:04:03.661Z,10.31
2023-01-11T12:06:30.532Z,10.25
2023-01-11T12:08:59.253Z,10.26
2023-01-11T12:11:36.052Z,10.28
2023-01-11T12:14:22.622Z,10.29
2023-01-11T12:16:49.440Z,10.26
2023-01-11T12:19:41.875Z,10.27
2023-01-11T12:22:22.347Z,10.19
2023-01-11T12:25:05.292Z,10.27
2023-01-11T12:27:56.072Z,10.33
2023-01-11T12:30:46.804Z,10.33
2023-01-11T12:33:31.942Z,10.31
2023-01-11T12:36:05.040Z,10.38
2023-01-11T12:38:45.630Z,10.38
2023-01-11T12:41:19.687Z,10.40
2023-01-11T12:44:01.810Z,10.37
2023-01-11T12:46:31.858Z,10.39
2023-01-11T12:49:23.651Z,10.42
2023-01-11T12:52:29.332Z,10.44
2023-01-11T12:55:30.240Z,10.48
2023-01-11T12:58:01.446Z,10.47
2023-01-11T13:00:58.624Z,10.43
2023-01-11T13:03:34.158Z,10.38
2023-01-11T13:06:14.435Z,10.38
2023-01-11T13:08:56.621Z,10.41
2023-01-11T13:11:43.511Z,10.45
2023-01-11T13:14:22.629Z,10.42
2023-01-11T13:16:56.654Z,10.43
2023-01-11T13:19:32.731Z,10.47
2023-01-11T13:21:59.635Z,10.51
2023-01-11T13:24:28.933Z,10.50
2023-01-11T13:26:59.482Z,10.47
2023-01-11T13:29:31.783Z,10.49
2023-01-11T13:31:59.521Z,10.51
2023-01-11T13:34:38.995Z,10.50
2023-01-11T13:37:22.781Z,10.51
2023-01-11T13:39:55.851Z,10.49
2023-01-11T13:42:24.621Z,10.49
2023-01-11T13:45:04.315Z,10.46
2023-01-11T13:47:33.215Z,10.46
2023-01-11T13:50:20.284Z,10.47
2023-01-11T13:53:15.337Z,10.47
2023-01-11T13:55:59.088Z,10.46
2023-01-11T13:58:44.342Z,10.45
2023-01-11T14:01:15.570Z,10.45
2023-01-11T14:03:51.395Z,10.45
2023-01-11T14:06:24.458Z,10.45
2023-01-11T14:08:54.187Z,10.45
2023-01-11T14:11:43.045Z,10.40
2023-01-11T14:14:31.703Z,10.39
2023-01-11T14:17:17.371Z,10.40
2023-01-11T14:19:52.712Z,10.43
2023-01-11T14:22:46.108Z,10.42
2023-01-11T14:25:18.921Z,10.39
2023-01-11T14:27:55.053Z,10.39
2023-01-11T14:30:31.161Z,10.38
2023-01-11T14:33:24.249Z,10.36
2023-01-11T14:36:00.380Z,10.33
2023-01-11T14:38:27.322Z,10.29
2023-01-11T14:40:53.997Z,10.32
2023-01-11T14:43:49.023Z,10.30
2023-01-11T14:46:24.119Z,10.26
2023-01-11T14:48:57.656Z,10.25
2023-01-11T14:51:33.090Z,10.22
2023-01-11T14:54:04.469Z,10.20
2023-01-11T14:56:53.274Z,10.16
2023-01-11T14:59:24.530Z,10.16
2023-01-11T15:02:03.527Z,10.15
2023-01-11T15:04:30.713Z,10.15
2023-01-11T15:06:57.516Z,10.15
2023-01-11T15:09:49.499Z,10.11
2023-01-11T15:12:19.754Z,10.11
2023-01-11T15:14:54.600Z,10.11
2023-01-11T15:17:42.796Z,10.12
2023-01-11T15:20:11.497Z,10.05
2023-01-11T15:22:45.479Z,10.06
2023-01-11T15:25:25.177Z,10.06
2023-01-11T15:27:52.301Z,10.00
2023-01-11T15:30:31.506Z,10.02
2023-01-11T15:33:17.508Z,9.99
2023-01-11T15:36:03.570Z,9.97
2023-01-11T15:38:34.659Z,9.94
2023-01-11T15:41:20.280Z,9.95
2023-01-11T15:44:17.934Z,9.89
2023-01-11T15:47:01.527Z,9.85
2023-01-11T15:50:06.349Z,9.84
2023-01-11T15:52:55.352Z,9.79
2023-01-11T15:55:59.419Z,9.80
2023-01-11T15:58:41.547Z,9.79
2023-01-11T16:01:29.950Z,9.80
2023-01-11T16:04:01.204Z,9.75
2023-01-11T16:06:37.079Z,9.75
2023-01-11T16:09:06.988Z,9.74
2023-01-11T16:11:44.943Z,9.72
2023-01-11T16:14:33.810Z,9.71
2023-01-11T16:17:00.437Z,9.69
2023-01-11T16:19:34.399Z,9.69
2023-01-11T16:22:02.414Z,9.65
2023-01-11T16:24:29.826Z,9.66
2023-01-11T16:26:58.703Z,9.65
2023-01-11T16:29:26.996Z,9.68
2023-01-11T16:32:01.521Z,9.69
2023-01-11T16:34:29.927Z,9.68
2023-01-11T16:36:57.613Z,9.64
2023-01-11T16:39:25.914Z,9.58
2023-01-11T16:42:00.822Z,9.59
2023-01-11T16:44:45.504Z,9.55
2023-01-11T16:47:14.322Z,9.55
2023-01-11T16:49:43.028Z,9.57
2023-01-11T16:52:28.066Z,9.53
2023-01-11T16:54:58.151Z,9.50
2023-01-11T16:57:28.953Z,9.51
2023-01-11T17:00:00.565Z,9.53
2023-01-11T17:02:32.706Z,9.50
2023-01-11T17:05:00.592Z,9.50
2023-01-11T17:07:28.696Z,9.50
2023-01-11T17:10:21.912Z,9.43
2023-01-11T17:13:03.825Z,9.45
2023-01-11T17:15:53.814Z,9.46
2023-01-11T17:18:20.446Z,9.50
2023-01-11T17:20:51.627Z,9.44
2023-01-11T17:23:18.306Z,9.45
2023-01-11T17:25:45.456Z,9.44
2023-01-11T17:28:17.450Z,9.44
2023-01-11T17:30:45.546Z,9.41
2023-01-11T17:33:25.031Z,9.42
2023-01-11T17:35:51.999Z,9.41
2023-01-11T17:38:22.163Z,9.42
2023-01-11T17:40:49.145Z,9.41
2023-01-11T17:43:44.671Z,9.41
2023-01-11T17:46:19.672Z,9.44
2023-01-11T17:49:03.655Z,9.41
2023-01-11T17:51:32.243Z,9.43
2023-01-11T17:53:58.983Z,9.40
2023-01-11T17:56:39.221Z,9.38
2023-01-11T17:59:25.761Z,9.37
2023-01-11T18:02:00.340Z,9.40
2023-01-11T18:04:27.266Z,9.36
2023-01-11T18:06:55.790Z,9.40
2023-01-11T18:09:29.382Z,9.40
2023-01-11T18:12:26.114Z,9.35
2023-01-11T18:14:57.777Z,9.37
2023-01-11T18:17:37.085Z,9.39
2023-01-11T18:20:29.411Z,9.34
2023-01-11T18:23:12.190Z,9.36
2023-01-11T18:25:38.887Z,9.35
2023-01-11T18:28:20.948Z,9.37
2023-01-11T18:30:56.555Z,9.32
2023-01-11T18:33:25.851Z,9.33
2023-01-11T18:35:59.877Z,9.31
2023-01-11T18:38:34.400Z,9.32
2023-01-11T18:41:25.531Z,9.33
2023-01-11T18:43:52.988Z,9.29
2023-01-11T18:46:20.965Z,9.31
2023-01-11T18:48:47.923Z,9.33
2023-01-11T18:51:27.399Z,9.29
2023-01-11T18:53:54.364Z,9.26
2023-01-11T18:56:21.075Z,9.26
2023-01-11T18:58:49.152Z,9.28
2023-01-11T19:01:15.839Z,9.29
2023-01-11T19:03:45.886Z,9.28
2023-01-11T19:06:22.973Z,9.24
2023-01-11T19:08:49.910Z,9.21
2023-01-11T19:11:16.878Z,9.25
2023-01-11T19:13:46.640Z,9.24
2023-01-11T19:16:13.925Z,9.27
2023-01-11T19:18:40.840Z,9.28
2023-01-11T19:21:14.402Z,9.28
2023-01-11T19:23:43.753Z,9.24
2023-01-11T19:26:10.420Z,9.23
2023-01-11T19:28:37.406Z,9.21
2023-01-11T19:31:08.280Z,9.20
2023-01-11T19:33:35.323Z,9.23
2023-01-11T19:36:06.501Z,9.18
2023-01-11T19:38:34.123Z,9.24
2023-01-11T19:41:05.206Z,9.20
2023-01-11T19:43:32.306Z,9.25
2023-01-11T19:45:59.446Z,9.22
2023-01-11T19:48:26.410Z,9.20
2023-01-11T19:51:01.287Z,9.22
2023-01-11T19:53:30.188Z,9.25
2023-01-11T19:56:04.384Z,9.26
2023-01-11T19:58:31.535Z,9.24
2023-01-11T20:00:58.271Z,9.24
2023-01-11T20:03:25.717Z,9.21
2023-01-11T20:05:52.381Z,9.23
2023-01-11T20:08:19.497Z,9.25
2023-01-11T20:10:47.551Z,9.24
2023-01-11T20:13:14.635Z,9.24
2023-01-11T20:15:41.387Z,9.25
2023-01-11T20:18:08.505Z,9.29
2023-01-11T20:20:35.261Z,9.33
2023-01-11T20:23:02.227Z,9.31
2023-01-11T20:25:28.899Z,9.33
2023-01-11T20:27:55.832Z,9.28
2023-01-11T20:30:22.556Z,9.28
2023-01-11T20:32:49.544Z,9.27
2023-01-11T20:35:21.385Z,9.29
2023-01-11T20:37:48.517Z,9.31
2023-01-11T20:40:15.516Z,9.34
2023-01-11T20:42:42.467Z,9.36
2023-01-11T20:45:10.836Z,9.30
2023-01-11T20:47:38.002Z,9.31
2023-01-11T20:50:04.989Z,9.30
2023-01-11T20:52:32.054Z,9.27
2023-01-11T20:54:58.791Z,9.29
2023-01-11T20:57:29.212Z,9.29
2023-01-11T20:59:57.988Z,9.23
2023-01-11T21:02:24.973Z,9.25
2023-01-11T21:05:00.345Z,9.29
2023-01-11T21:07:27.402Z,9.34
2023-01-11T21:09:54.027Z,9.31
2023-01-11T21:12:21.096Z,9.31
2023-01-11T21:14:47.812Z,9.36
2023-01-11T21:17:14.769Z,9.28
2023-01-11T21:19:42.934Z,9.35
2023-01-11T21:22:09.987Z,9.34
2023-01-11T21:24:38.646Z,9.31
2023-01-11T21:27:09.828Z,9.35
2023-01-11T21:29:36.481Z,9.36
2023-01-11T21:32:03.709Z,9.38
2023-01-11T21:34:30.401Z,9.32
2023-01-11T21:36:57.306Z,9.37
2023-01-11T21:39:23.948Z,9.36
2023-01-11T21:41:58.801Z,9.37
2023-01-11T21:44:30.633Z,9.39
2023-01-11T21:46:57.739Z,9.39
2023-01-11T21:49:24.440Z,9.41
2023-01-11T21:51:51.791Z,9.43
2023-01-11T21:54:26.373Z,9.42
2023-01-11T21:56:53.373Z,9.43
2023-01-11T21:59:20.757Z,9.42
2023-01-11T22:01:49.251Z,9.47
2023-01-11T22:04:17.572Z,9.43
2023-01-11T22:06:51.135Z,9.49
2023-01-11T22:09:18.827Z,9.47
2023-01-11T22:11:46.057Z,9.46
2023-01-11T22:14:12.744Z,9.45
2023-01-11T22:16:40.642Z,9.45
2023-01-11T22:19:07.722Z,9.45
2023-01-11T22:21:35.976Z,9.45
2023-01-11T22:24:03.064Z,9.44
2023-01-11T22:26:33.337Z,9.45
2023-01-11T22:29:12.188Z,9.41
2023-01-11T22:31:50.895Z,9.43
2023-01-11T22:34:18.220Z,9.38
2023-01-11T22:36:45.452Z,9.39
2023-01-11T22:39:12.833Z,9.36
2023-01-11T22:41:45.438Z,9.36
2023-01-11T22:44:12.426Z,9.41
2023-01-11T22:46:39.361Z,9.40
2023-01-11T22:49:06.320Z,9.41
2023-01-11T22:51:33.356Z,9.40
2023-01-11T22:54:00.119Z,9.42
2023-01-11T22:56:29.156Z,9.40
2023-01-11T22:58:56.435Z,9.41
2023-01-11T23:01:24.205Z,9.42
2023-01-11T23:03:52.582Z,9.37
2023-01-11T23:06:27.077Z,9.35
2023-01-11T23:08:54.122Z,9.36
2023-01-11T23:11:44.923Z,9.38
2023-01-11T23:14:13.333Z,9.37
2023-01-11T23:16:40.531Z,9.38
2023-01-11T23:19:07.661Z,9.38
2023-01-11T23:21:35.095Z,9.37
2023-01-11T23:24:02.288Z,9.34
2023-01-11T23:26:29.278Z,9.34
2023-01-11T23:28:55.959Z,9.37
2023-01-11T23:31:23.949Z,9.33
2023-01-11T23:33:53.010Z,9.33
2023-01-11T23:36:20.712Z,9.34
2023-01-11T23:38:47.720Z,9.35
2023-01-11T23:41:35.301Z,9.32
2023-01-11T23:44:02.670Z,9.19
2023-01-11T23:46:48.186Z,9.15
2023-01-11T23:49:14.934Z,9.28
2023-01-11T23:51:42.415Z,9.34
2023-01-11T23:54:09.179Z,9.29
2023-01-11T23:56:36.223Z,9.31
2023-01-11T23:59:03.283Z,9.31
